createdAt,value
2023-03-24T00:01:18.506Z,17.85
2023-03-24T00:03:48.752Z,18.15
2023-03-24T00:06:18.892Z,17.65
2023-03-24T00:08:48.304Z,16.55
2023-03-24T00:11:18.763Z,16.77
2023-03-24T00:13:47.321Z,16.35
2023-03-24T00:16:17.115Z,15.85
2023-03-24T00:18:44.683Z,16.15
2023-03-24T00:21:13.616Z,16.08
2023-03-24T00:23:42.863Z,14.82
2023-03-24T00:26:16.862Z,14.80
2023-03-24T00:28:46.923Z,13.18
2023-03-24T00:31:16.008Z,14.23
2023-03-24T00:33:48.123Z,14.27
2023-03-24T00:38:44.439Z,13.05
2023-03-24T00:41:11.961Z,13.35
2023-03-24T00:43:40.158Z,13.55
2023-03-24T00:46:11.153Z,14.32
2023-03-24T00:48:41.962Z,13.60
2023-03-24T00:51:11.123Z,12.77
2023-03-24T00:53:43.951Z,13.90
2023-03-24T00:56:11.787Z,14.27
2023-03-24T00:58:39.184Z,16.02
2023-03-24T01:01:07.279Z,16.38
2023-03-24T01:03:35.121Z,17.73
2023-03-24T01:06:04.577Z,20.35
2023-03-24T01:08:32.111Z,20.40
2023-03-24T01:11:01.208Z,22.23
2023-03-24T01:13:30.002Z,23.40
2023-03-24T01:15:57.760Z,22.48
2023-03-24T01:18:25.417Z,25.35
2023-03-24T01:20:53.875Z,27.00
2023-03-24T01:23:24.490Z,32.78
2023-03-24T01:25:52.538Z,30.45
2023-03-24T01:28:27.339Z,30.13
2023-03-24T01:30:54.960Z,31.85
2023-03-24T01:33:22.828Z,29.80
2023-03-24T01:35:50.549Z,31.67
2023-03-24T01:38:18.069Z,31.33
2023-03-24T01:40:47.377Z,27.80
2023-03-24T01:43:26.659Z,28.08
2023-03-24T01:46:23.626Z,26.55
2023-03-24T01:49:01.321Z,24.88
2023-03-24T01:51:41.929Z,25.75
2023-03-24T01:54:35.291Z,27.00
2023-03-24T01:57:07.640Z,27.92
2023-03-24T01:59:41.711Z,27.08
2023-03-24T02:02:22.251Z,26.77
2023-03-24T02:04:59.386Z,25.00
2023-03-24T02:08:03.801Z,23.85
2023-03-24T02:10:34.226Z,25.42
2023-03-24T02:13:01.854Z,23.85
2023-03-24T02:15:31.340Z,25.00
2023-03-24T02:18:09.301Z,23.50
2023-03-24T02:21:18.591Z,24.73
2023-03-24T02:23:55.760Z,23.40
2023-03-24T02:26:32.348Z,25.02
2023-03-24T02:29:21.120Z,24.55
2023-03-24T02:32:26.401Z,24.73
2023-03-24T02:35:12.292Z,25.23
2023-03-24T02:37:55.169Z,26.88
2023-03-24T02:41:01.337Z,24.30
2023-03-24T02:43:51.986Z,24.00
2023-03-24T02:46:33.232Z,24.63
2023-03-24T02:49:22.307Z,21.83
2023-03-24T02:52:01.232Z,23.35
2023-03-24T02:54:48.394Z,23.27
2023-03-24T02:57:18.842Z,24.42
2023-03-24T03:00:15.363Z,23.48
2023-03-24T03:03:31.141Z,22.73
2023-03-24T03:06:09.155Z,19.55
2023-03-24T03:08:38.687Z,18.88
2023-03-24T03:11:10.342Z,19.65
2023-03-24T03:13:43.192Z,19.73
2023-03-24T03:16:15.961Z,19.73
2023-03-24T03:18:50.168Z,21.25
2023-03-24T03:21:22.918Z,23.17
2023-03-24T03:24:06.189Z,25.05
2023-03-24T03:26:34.487Z,25.80
2023-03-24T03:29:11.754Z,25.80
2023-03-24T03:31:44.426Z,26.15
2023-03-24T03:34:22.420Z,24.98
2023-03-24T03:36:57.734Z,23.73
2023-03-24T03:39:31.441Z,26.27
2023-03-24T03:42:02.328Z,25.75
2023-03-24T03:44:31.268Z,26.25
2023-03-24T03:46:59.166Z,25.17
2023-03-24T03:49:40.501Z,25.35
2023-03-24T03:52:08.222Z,25.50
2023-03-24T03:54:37.895Z,26.10
2023-03-24T03:57:06.168Z,26.63
2023-03-24T03:59:42.505Z,25.45
2023-03-24T04:02:32.614Z,24.77
2023-03-24T04:05:26.141Z,25.38
2023-03-24T04:08:10.692Z,25.02
2023-03-24T04:10:58.310Z,24.17
2023-03-24T04:13:33.483Z,24.60
2023-03-24T04:16:48.919Z,23.65
2023-03-24T04:19:33.767Z,23.83
2023-03-24T04:22:26.977Z,23.77
2023-03-24T04:25:37.471Z,22.73
2023-03-24T04:28:14.935Z,23.05
2023-03-24T04:30:55.978Z,22.90
2023-03-24T04:33:35.278Z,22.20
2023-03-24T04:36:17.039Z,22.73
2023-03-24T04:39:05.162Z,22.67
2023-03-24T04:41:41.705Z,22.65
2023-03-24T04:44:17.681Z,22.10
2023-03-24T04:47:03.577Z,22.15
2023-03-24T04:49:31.279Z,22.17
2023-03-24T04:51:58.634Z,22.33
2023-03-24T04:54:28.324Z,21.90
2023-03-24T04:57:04.293Z,22.40
2023-03-24T04:59:40.639Z,21.38
2023-03-24T05:02:09.106Z,22.35
2023-03-24T05:05:02.837Z,20.48
2023-03-24T05:07:35.476Z,21.40
2023-03-24T05:10:07.769Z,22.20
2023-03-24T05:12:41.114Z,20.25
2023-03-24T05:15:28.720Z,20.05
2023-03-24T05:18:07.504Z,21.80
2023-03-24T05:20:34.872Z,21.27
2023-03-24T05:23:12.260Z,20.88
2023-03-24T05:25:40.960Z,21.63
2023-03-24T05:28:08.415Z,23.02
2023-03-24T05:30:36.303Z,23.17
2023-03-24T05:33:13.735Z,23.67
2023-03-24T05:35:41.237Z,25.75
2023-03-24T05:38:09.146Z,25.75
2023-03-24T05:40:37.089Z,25.75
2023-03-24T05:43:13.316Z,26.67
2023-03-24T05:45:46.676Z,28.45
2023-03-24T05:48:23.693Z,29.48
2023-03-24T05:51:04.022Z,30.60
2023-03-24T05:53:31.508Z,29.30
2023-03-24T05:56:16.946Z,30.92
2023-03-24T05:59:02.692Z,31.02
2023-03-24T06:01:58.629Z,33.50
2023-03-24T06:07:17.053Z,33.38
2023-03-24T06:09:51.029Z,34.22
2023-03-24T06:12:19.199Z,34.08
2023-03-24T06:15:00.930Z,35.53
2023-03-24T06:17:30.271Z,37.15
2023-03-24T06:20:06.108Z,37.10
2023-03-24T06:23:02.834Z,38.20
2023-03-24T06:25:44.966Z,39.03
2023-03-24T06:28:22.752Z,39.15
2023-03-24T06:30:50.983Z,40.00
2023-03-24T06:33:25.920Z,41.08
2023-03-24T06:35:54.579Z,39.22
2023-03-24T06:38:22.292Z,39.97
2023-03-24T06:40:49.775Z,38.78
2023-03-24T06:43:17.420Z,40.15
2023-03-24T06:45:46.002Z,39.95
2023-03-24T06:48:24.136Z,39.83
2023-03-24T06:50:56.315Z,39.25
2023-03-24T06:53:23.761Z,39.78
2023-03-24T06:55:51.786Z,37.90
2023-03-24T06:58:21.590Z,39.00
2023-03-24T07:01:05.295Z,38.17
2023-03-24T07:03:35.065Z,39.70
2023-03-24T07:06:18.553Z,40.25
2023-03-24T07:08:50.694Z,39.65
2023-03-24T07:11:18.725Z,39.47
2023-03-24T07:13:52.950Z,38.30
2023-03-24T07:16:20.773Z,38.58
2023-03-24T07:18:54.816Z,37.42
2023-03-24T07:21:22.265Z,39.25
2023-03-24T07:23:51.475Z,39.65
2023-03-24T07:26:27.386Z,40.17
2023-03-24T07:28:59.134Z,41.80
2023-03-24T07:31:38.120Z,41.88
2023-03-24T07:34:09.173Z,42.83
2023-03-24T07:36:38.599Z,43.10
2023-03-24T07:39:09.507Z,43.10
2023-03-24T07:41:37.254Z,43.35
2023-03-24T07:44:12.398Z,42.58
2023-03-24T07:46:42.076Z,43.53
2023-03-24T07:49:18.844Z,44.88
2023-03-24T07:51:54.587Z,45.47
2023-03-24T07:54:30.101Z,46.22
2023-03-24T07:56:57.636Z,50.95
2023-03-24T07:59:26.797Z,49.00
2023-03-24T08:02:17.796Z,49.50
2023-03-24T08:04:54.252Z,48.55
2023-03-24T08:07:55.993Z,46.70
2023-03-24T08:10:29.509Z,46.47
2023-03-24T08:12:57.815Z,47.42
2023-03-24T08:15:26.483Z,46.53
2023-03-24T08:17:56.401Z,46.30
2023-03-24T08:20:27.187Z,46.72
2023-03-24T08:22:54.875Z,46.72
2023-03-24T08:25:25.702Z,46.38
2023-03-24T08:27:54.326Z,47.58
2023-03-24T08:30:26.406Z,46.55
2023-03-24T08:35:25.919Z,45.85
2023-03-24T08:37:53.252Z,44.65
2023-03-24T08:40:24.266Z,45.88
2023-03-24T08:43:00.967Z,43.17
2023-03-24T08:45:31.524Z,46.50
2023-03-24T08:48:01.405Z,46.90
2023-03-24T08:50:32.800Z,47.90
2023-03-24T08:53:00.178Z,48.90
2023-03-24T08:55:27.904Z,47.72
2023-03-24T08:57:56.039Z,48.60
2023-03-24T09:00:24.683Z,47.75
2023-03-24T09:02:54.497Z,45.50
2023-03-24T09:05:33.310Z,45.95
2023-03-24T09:08:08.669Z,48.30
2023-03-24T09:10:36.360Z,45.83
2023-03-24T09:13:04.555Z,43.88
2023-03-24T09:15:32.370Z,44.42
2023-03-24T09:17:59.972Z,38.92
2023-03-24T09:20:27.434Z,39.13
2023-03-24T09:22:55.946Z,27.67
2023-03-24T09:25:23.644Z,27.20
2023-03-24T09:27:51.162Z,26.42
2023-03-24T09:30:19.061Z,25.42
2023-03-24T09:32:46.715Z,26.42
2023-03-24T09:35:15.143Z,28.38
2023-03-24T09:37:43.751Z,29.90
2023-03-24T09:40:20.727Z,29.50
2023-03-24T09:42:55.737Z,30.15
2023-03-24T09:45:26.404Z,29.52
2023-03-24T09:47:59.556Z,29.40
2023-03-24T09:50:36.989Z,28.10
2023-03-24T09:53:21.433Z,28.38
2023-03-24T09:55:49.575Z,25.55
2023-03-24T09:58:20.014Z,24.83
2023-03-24T10:00:47.689Z,24.23
2023-03-24T10:03:21.429Z,25.38
2023-03-24T10:06:13.019Z,22.13
2023-03-24T10:08:48.947Z,14.88
2023-03-24T10:11:37.753Z,13.27
2023-03-24T10:14:22.808Z,13.40
2023-03-24T10:17:06.776Z,7.55
2023-03-24T10:19:36.944Z,4.05
2023-03-24T10:22:27.893Z,3.47
2023-03-24T10:25:04.844Z,2.90
2023-03-24T10:27:39.195Z,2.95
2023-03-24T10:30:29.319Z,2.72
2023-03-24T10:32:56.869Z,2.63
2023-03-24T10:35:38.405Z,2.35
2023-03-24T10:38:32.007Z,2.60
2023-03-24T10:41:00.938Z,2.25
2023-03-24T10:43:29.750Z,1.92
2023-03-24T10:45:59.628Z,2.00
2023-03-24T10:48:51.083Z,2.10
2023-03-24T10:51:27.061Z,2.10
2023-03-24T10:54:22.810Z,1.92
2023-03-24T10:56:57.858Z,1.83
2023-03-24T10:59:33.233Z,2.22
2023-03-24T11:02:09.559Z,1.90
2023-03-24T11:04:40.646Z,2.35
2023-03-24T11:07:16.118Z,2.40
2023-03-24T11:09:45.773Z,2.33
2023-03-24T11:12:24.609Z,2.65
2023-03-24T11:14:57.562Z,2.40
2023-03-24T11:17:24.963Z,2.25
2023-03-24T11:19:54.284Z,2.30
2023-03-24T11:22:22.245Z,2.17
2023-03-24T11:24:52.755Z,2.40
2023-03-24T11:27:20.360Z,2.45
2023-03-24T11:29:53.948Z,2.55
2023-03-24T11:32:27.290Z,2.60
2023-03-24T11:35:07.548Z,2.70
2023-03-24T11:37:37.106Z,2.90
2023-03-24T11:40:13.762Z,2.72
2023-03-24T11:42:46.124Z,2.88
2023-03-24T11:45:46.023Z,2.67
2023-03-24T11:48:35.704Z,2.78
2023-03-24T11:51:05.667Z,2.92
2023-03-24T11:53:48.122Z,3.70
2023-03-24T11:56:30.283Z,2.72
2023-03-24T11:59:03.610Z,2.22
2023-03-24T12:01:39.350Z,4.47
2023-03-24T12:04:29.383Z,3.10
2023-03-24T12:07:18.005Z,2.65
2023-03-24T12:09:54.405Z,3.05
2023-03-24T12:12:36.542Z,3.17
2023-03-24T12:18:05.876Z,2.85
2023-03-24T12:20:42.956Z,3.13
2023-03-24T12:23:24.988Z,3.17
2023-03-24T12:26:14.342Z,3.38
2023-03-24T12:28:47.783Z,7.38
2023-03-24T12:31:41.722Z,3.53
2023-03-24T12:34:33.740Z,3.30
2023-03-24T12:37:28.475Z,15.82
2023-03-24T12:40:19.388Z,5.97
2023-03-24T12:42:46.962Z,4.20
2023-03-24T12:45:38.774Z,4.18
2023-03-24T12:48:30.776Z,4.25
2023-03-24T12:51:29.245Z,4.20
2023-03-24T12:54:09.533Z,4.13
2023-03-24T12:56:53.688Z,4.47
2023-03-24T12:59:28.881Z,4.90
2023-03-24T13:02:08.624Z,4.15
2023-03-24T13:04:40.883Z,4.15
2023-03-24T13:07:11.966Z,4.18
2023-03-24T13:10:05.112Z,4.07
2023-03-24T13:13:06.218Z,4.22
2023-03-24T13:15:43.143Z,4.85
2023-03-24T13:18:18.142Z,4.32
2023-03-24T13:20:54.467Z,5.18
2023-03-24T13:23:34.267Z,5.15
2023-03-24T13:26:22.037Z,4.60
2023-03-24T13:29:08.177Z,5.15
2023-03-24T13:31:42.007Z,5.07
2023-03-24T13:34:26.069Z,5.38
2023-03-24T13:37:00.291Z,5.00
2023-03-24T13:39:29.524Z,4.85
2023-03-24T13:41:59.252Z,5.30
2023-03-24T13:44:40.486Z,4.85
2023-03-24T13:47:15.232Z,5.20
2023-03-24T13:49:53.872Z,5.22
2023-03-24T13:52:40.119Z,7.53
2023-03-24T13:55:21.506Z,6.47
2023-03-24T13:58:23.268Z,5.28
2023-03-24T14:01:09.153Z,5.60
2023-03-24T14:03:41.967Z,5.50
2023-03-24T14:06:17.277Z,5.85
2023-03-24T14:08:53.736Z,5.57
2023-03-24T14:11:41.456Z,5.63
2023-03-24T14:14:14.937Z,5.28
2023-03-24T14:17:02.286Z,4.60
2023-03-24T14:19:41.897Z,5.32
2023-03-24T14:22:21.565Z,4.85
2023-03-24T14:25:06.928Z,5.40
2023-03-24T14:27:42.876Z,5.80
2023-03-24T14:30:11.019Z,6.50
2023-03-24T14:33:00.191Z,6.53
2023-03-24T14:35:44.357Z,5.55
2023-03-24T14:38:15.453Z,5.72
2023-03-24T14:40:52.282Z,6.32
2023-03-24T14:43:27.326Z,5.88
2023-03-24T14:46:00.708Z,5.32
2023-03-24T14:48:33.812Z,5.82
2023-03-24T14:51:08.877Z,5.75
2023-03-24T14:53:38.564Z,5.70
2023-03-24T14:56:16.641Z,6.50
2023-03-24T14:58:48.755Z,5.47
2023-03-24T15:04:06.864Z,5.28
2023-03-24T15:06:44.415Z,5.47
2023-03-24T15:09:11.853Z,5.72
2023-03-24T15:11:41.397Z,4.60
2023-03-24T15:14:24.476Z,5.30
2023-03-24T15:16:55.784Z,4.93
2023-03-24T15:19:26.659Z,4.70
2023-03-24T15:22:10.635Z,4.90
2023-03-24T15:24:41.240Z,4.80
2023-03-24T15:27:08.519Z,4.50
2023-03-24T15:29:41.500Z,4.82
2023-03-24T15:32:32.114Z,5.25
2023-03-24T15:35:05.793Z,5.03
2023-03-24T15:37:33.299Z,4.82
2023-03-24T15:40:12.912Z,4.55
2023-03-24T15:45:26.153Z,4.57
2023-03-24T15:47:54.671Z,4.15
2023-03-24T15:50:39.740Z,4.93
2023-03-24T15:53:23.402Z,4.78
2023-03-24T15:56:22.046Z,4.20
2023-03-24T15:58:51.357Z,4.20
2023-03-24T16:01:27.371Z,4.20
2023-03-24T16:03:55.301Z,4.32
2023-03-24T16:06:36.833Z,4.88
2023-03-24T16:09:10.649Z,3.95
2023-03-24T16:11:38.140Z,4.60
2023-03-24T16:14:32.800Z,4.45
2023-03-24T16:17:03.054Z,4.95
2023-03-24T16:19:30.680Z,4.43
2023-03-24T16:21:58.128Z,4.88
2023-03-24T16:24:25.491Z,4.80
2023-03-24T16:26:52.850Z,4.70
2023-03-24T16:29:23.004Z,4.63
2023-03-24T16:31:52.587Z,5.18
2023-03-24T16:34:21.363Z,5.28
2023-03-24T16:36:51.126Z,5.72
2023-03-24T16:39:28.887Z,4.82
2023-03-24T16:41:56.681Z,5.00
2023-03-24T16:44:24.642Z,5.22
2023-03-24T16:46:54.388Z,5.70
2023-03-24T16:49:23.867Z,4.97
2023-03-24T16:51:52.837Z,4.97
2023-03-24T16:54:20.853Z,5.30
2023-03-24T16:56:48.488Z,5.22
2023-03-24T16:59:15.932Z,5.05
2023-03-24T17:01:47.965Z,4.40
2023-03-24T17:06:50.824Z,5.60
2023-03-24T17:09:18.886Z,5.53
2023-03-24T17:11:52.325Z,6.10
2023-03-24T17:14:19.904Z,6.03
2023-03-24T17:16:49.226Z,6.63
2023-03-24T17:19:19.427Z,4.43
2023-03-24T17:21:56.964Z,6.43
2023-03-24T17:24:25.657Z,5.13
2023-03-24T17:26:53.100Z,24.73
2023-03-24T17:29:20.692Z,6.57
2023-03-24T17:31:48.162Z,5.43
2023-03-24T17:34:21.580Z,4.80
2023-03-24T17:36:51.395Z,4.35
2023-03-24T17:39:21.254Z,4.47
2023-03-24T17:41:48.862Z,4.35
2023-03-24T17:44:16.374Z,4.30
2023-03-24T17:46:43.808Z,3.67
2023-03-24T17:49:11.120Z,4.22
2023-03-24T17:51:38.622Z,3.95
2023-03-24T17:54:06.066Z,3.78
2023-03-24T17:56:33.443Z,3.65
2023-03-24T17:59:03.113Z,3.97
2023-03-24T18:01:31.014Z,4.00
2023-03-24T18:03:58.468Z,3.63
2023-03-24T18:06:27.439Z,4.05
2023-03-24T18:08:54.808Z,3.70
2023-03-24T18:11:22.305Z,3.38
2023-03-24T18:13:49.825Z,3.47
2023-03-24T18:16:21.882Z,3.17
2023-03-24T18:18:51.025Z,3.20
2023-03-24T18:21:19.654Z,3.97
2023-03-24T18:23:48.518Z,3.70
2023-03-24T18:26:17.874Z,3.65
2023-03-24T18:28:46.060Z,3.72
2023-03-24T18:31:20.146Z,3.67
2023-03-24T18:33:48.964Z,4.00
2023-03-24T18:36:21.286Z,3.95
2023-03-24T18:38:49.211Z,4.00
2023-03-24T18:41:18.445Z,4.22
2023-03-24T18:43:48.216Z,4.38
2023-03-24T18:46:16.641Z,4.88
2023-03-24T18:48:44.480Z,5.30
2023-03-24T18:51:12.310Z,5.53
2023-03-24T18:53:39.904Z,5.07
2023-03-24T18:56:08.423Z,5.35
2023-03-24T18:58:38.073Z,5.20
2023-03-24T19:01:15.108Z,4.90
2023-03-24T19:03:44.116Z,4.88
2023-03-24T19:06:13.706Z,4.95
2023-03-24T19:08:44.744Z,3.88
2023-03-24T19:11:13.801Z,4.30
2023-03-24T19:13:41.628Z,4.22
2023-03-24T19:16:10.548Z,4.53
2023-03-24T19:18:38.283Z,3.83
2023-03-24T19:21:06.837Z,4.50
2023-03-24T19:23:34.758Z,4.25
2023-03-24T19:26:02.711Z,4.00
2023-03-24T19:28:32.380Z,4.57
2023-03-24T19:31:05.680Z,4.00
2023-03-24T19:33:33.219Z,4.40
2023-03-24T19:36:00.649Z,4.80
2023-03-24T19:38:29.160Z,4.50
2023-03-24T19:40:56.650Z,4.15
2023-03-24T19:43:25.202Z,4.10
2023-03-24T19:45:54.442Z,4.00
2023-03-24T19:48:22.963Z,4.97
2023-03-24T19:50:53.145Z,4.20
2023-03-24T19:53:21.705Z,4.55
2023-03-24T19:55:50.455Z,3.95
2023-03-24T19:58:18.295Z,4.10
2023-03-24T20:00:45.846Z,3.83
2023-03-24T20:03:13.266Z,4.35
2023-03-24T20:05:40.807Z,4.18
2023-03-24T20:08:08.286Z,4.00
2023-03-24T20:10:37.131Z,4.72
2023-03-24T20:13:04.441Z,4.97
2023-03-24T20:15:31.813Z,4.93
2023-03-24T20:17:59.257Z,4.38
2023-03-24T20:20:26.552Z,5.55
2023-03-24T20:22:53.977Z,4.82
2023-03-24T20:25:22.361Z,5.20
2023-03-24T20:27:49.766Z,5.07
2023-03-24T20:30:18.796Z,4.95
2023-03-24T20:32:46.383Z,5.30
2023-03-24T20:35:13.878Z,5.30
2023-03-24T20:37:41.343Z,4.75
2023-03-24T20:40:12.047Z,5.07
2023-03-24T20:42:39.422Z,5.30
2023-03-24T20:45:07.767Z,5.25
2023-03-24T20:47:36.512Z,4.70
2023-03-24T20:50:05.982Z,4.75
2023-03-24T20:52:33.494Z,5.07
2023-03-24T20:55:01.608Z,5.47
2023-03-24T20:57:31.117Z,5.13
2023-03-24T20:59:58.459Z,5.35
2023-03-24T21:02:25.980Z,11.88
2023-03-24T21:04:53.402Z,23.67
2023-03-24T21:07:20.801Z,6.00
2023-03-24T21:09:48.145Z,4.93
2023-03-24T21:12:16.172Z,5.40
2023-03-24T21:14:46.709Z,5.32
2023-03-24T21:17:14.102Z,5.07
2023-03-24T21:19:46.812Z,5.45
2023-03-24T21:22:15.459Z,6.07
2023-03-24T21:24:42.851Z,5.50
2023-03-24T21:27:10.760Z,5.40
2023-03-24T21:29:38.256Z,5.65
2023-03-24T21:32:06.002Z,5.75
2023-03-24T21:34:33.293Z,4.65
2023-03-24T21:37:01.560Z,4.78
2023-03-24T21:39:29.140Z,4.40
2023-03-24T21:41:56.484Z,4.43
2023-03-24T21:44:23.785Z,4.32
2023-03-24T21:46:51.136Z,4.30
2023-03-24T21:49:19.193Z,3.92
2023-03-24T21:51:46.834Z,4.07
2023-03-24T21:54:15.069Z,3.85
2023-03-24T21:56:42.583Z,3.70
2023-03-24T21:59:11.245Z,3.70
2023-03-24T22:01:38.758Z,3.25
2023-03-24T22:04:08.682Z,3.45
2023-03-24T22:06:37.682Z,3.50
2023-03-24T22:09:06.904Z,3.60
2023-03-24T22:11:35.066Z,3.40
2023-03-24T22:14:03.654Z,3.45
2023-03-24T22:16:32.959Z,3.10
2023-03-24T22:19:01.495Z,3.30
2023-03-24T22:21:29.074Z,56.65
2023-03-24T22:23:56.699Z,6.50
2023-03-24T22:26:24.139Z,2.97
2023-03-24T22:28:51.429Z,2.70
2023-03-24T22:31:23.182Z,2.13
2023-03-24T22:33:50.687Z,2.50
2023-03-24T22:36:18.157Z,1.90
2023-03-24T22:38:45.492Z,1.83
2023-03-24T22:41:13.242Z,2.10
2023-03-24T22:43:41.667Z,2.35
2023-03-24T22:46:10.512Z,2.17
2023-03-24T22:48:39.162Z,1.98
2023-03-24T22:51:06.936Z,1.88
2023-03-24T22:53:34.399Z,2.00
2023-03-24T22:56:01.948Z,2.33
2023-03-24T22:58:29.354Z,1.67
2023-03-24T23:00:56.966Z,2.00
2023-03-24T23:03:24.375Z,1.95
2023-03-24T23:05:51.975Z,1.50
2023-03-24T23:08:19.625Z,1.80
2023-03-24T23:10:47.740Z,1.35
2023-03-24T23:13:17.118Z,1.77
2023-03-24T23:15:48.242Z,1.63
2023-03-24T23:18:16.744Z,1.57
2023-03-24T23:20:45.238Z,1.85
2023-03-24T23:23:13.586Z,1.50
2023-03-24T23:25:43.377Z,1.58
2023-03-24T23:28:12.603Z,1.80
2023-03-24T23:30:41.329Z,1.52
2023-03-24T23:33:09.051Z,1.55
2023-03-24T23:35:37.497Z,1.50
2023-03-24T23:38:06.677Z,1.50
2023-03-24T23:40:34.173Z,1.40
2023-03-24T23:43:01.939Z,1.38
2023-03-24T23:45:29.381Z,1.55
2023-03-24T23:47:56.988Z,1.55
2023-03-24T23:50:24.373Z,1.52
2023-03-24T23:52:51.789Z,1.65
2023-03-24T23:55:20.957Z,1.85
2023-03-24T23:57:51.828Z,7.45
